This is the latest recevied weather packets stored in our database for station/object SQ5JP-4. If no packets are shown the sender has not sent any weather packets the latest 10 day(s).
| Time | Temp. | Humidity | Pressure | Rain* | Wind** | Luminosity | Snow |
|---|---|---|---|---|---|---|---|
| 1788157132 | 18.89° C | 100% | 995.7 hPa | - | - | - | - |
| 1788156232 | 18.33° C | 100% | 995.5 hPa | - | - | - | - |
| 1788155332 | 17.22° C | 100% | 995.2 hPa | - | - | - | - |
| 1788154432 | 16.67° C | 100% | 995.2 hPa | - | - | - | - |
| 1788153532 | 15.56° C | 100% | 995.2 hPa | - | - | - | - |
| 1788152632 | 15° C | 100% | 995 hPa | - | - | - | - |
| 1788151732 | 14.44° C | 100% | 994.9 hPa | - | - | - | - |
| 1788150831 | 13.89° C | 100% | 995.1 hPa | - | - | - | - |
| 1788149931 | 13.33° C | 100% | 995 hPa | - | - | - | - |
| 1788149031 | 13.33° C | 100% | 994.9 hPa | - | - | - | - |
| 1788148131 | 13.33° C | 100% | 995 hPa | - | - | - | - |
| 1788147231 | 13.33° C | 100% | 994.9 hPa | - | - | - | - |
| 1788146331 | 13.33° C | 100% | 995 hPa | - | - | - | - |
| 1788145431 | 13.33° C | 100% | 995 hPa | - | - | - | - |
| 1788122031 | 16.11° C | 100% | 995.7 hPa | - | - | - | - |
| 1788119331 | 15.56° C | 100% | 995.4 hPa | - | - | - | - |
| 1788113032 | 18.33° C | 100% | 995.7 hPa | - | - | - | - |
| 1788112131 | 18.89° C | 100% | 996 hPa | - | - | - | - |
| 1788111231 | 19.44° C | 100% | 996 hPa | - | - | - | - |
| 1788107630 | 23.33° C | 100% | 996.5 hPa | - | - | - | - |
| 1788106730 | 22.78° C | 100% | 996.4 hPa | - | - | - | - |
| 1788105830 | 23.33° C | 100% | 996.5 hPa | - | - | - | - |
| 1788104930 | 23.89° C | 100% | 996.6 hPa | - | - | - | - |
| 1788104030 | 24.44° C | 87% | 996.6 hPa | - | - | - | - |
| 1788103130 | 25° C | 100% | 996.7 hPa | - | - | - | - |
* Rain since midnight (hover to see other rain measurements)
** Current wind speed in m/s (hover to see current wind gust speed)